Time;durP1;ratioP1;P1;durP2;ratioP2;P2;SDS_P1;SDS_P2;PMS_P1;PMS_P2;Temp;Humidity;BMP_temperature;BMP_pressure;BME280_temperature;BME280_humidity;BME280_pressure;Samples;Min_cycle;Max_cycle;Signal;HPM_P1;HPM_P2
2022/06/15 00:00:56;;;;;;;0.43;0.40;;;12.80;74.10;12.80;101123.00;;;;5017798;27;82546;-67
2022/06/15 00:03:23;;;;;;;0.63;0.57;;;12.80;74.70;12.80;101111.00;;;;5012191;27;82706;-67
2022/06/15 00:05:50;;;;;;;1.57;1.00;;;12.80;75.20;12.70;101113.00;;;;5017951;27;84084;-68
2022/06/15 00:08:16;;;;;;;1.20;1.03;;;12.70;75.80;12.70;101113.00;;;;5017480;27;86890;-67
2022/06/15 00:10:41;;;;;;;4.00;1.13;;;12.70;76.20;12.60;101118.00;;;;5018291;27;82676;-68
2022/06/15 00:13:08;;;;;;;0.47;0.40;;;12.60;76.90;12.60;101109.00;;;;5013493;27;82984;-70
2022/06/15 00:15:34;;;;;;;0.80;0.80;;;12.60;77.60;12.50;101111.00;;;;5001958;27;83915;-69
2022/06/15 00:18:00;;;;;;;0.80;0.80;;;12.50;78.10;12.50;101107.00;;;;5017317;27;83763;-67
2022/06/15 00:20:26;;;;;;;0.50;0.50;;;12.50;78.70;12.40;101118.00;;;;5018394;27;82560;-67
2022/06/15 00:22:52;;;;;;;1.40;0.77;;;12.40;79.20;12.40;101108.00;;;;5001614;27;98674;-67
2022/06/15 00:25:18;;;;;;;2.00;1.00;;;12.40;79.60;12.30;101102.00;;;;5000869;27;112700;-67
2022/06/15 00:27:43;;;;;;;2.60;0.80;;;12.40;80.00;12.30;101099.00;;;;5012963;27;105508;-67
2022/06/15 00:30:10;;;;;;;1.77;0.70;;;12.30;80.10;12.30;101104.00;;;;5019862;27;109713;-67
2022/06/15 00:32:36;;;;;;;1.33;0.93;;;12.30;80.50;12.20;101102.00;;;;5007228;27;82178;-67
2022/06/15 00:35:02;;;;;;;1.13;0.80;;;12.30;80.90;12.20;101107.00;;;;5007438;27;111626;-67
2022/06/15 00:37:28;;;;;;;0.87;0.87;;;12.20;81.40;12.20;101102.00;;;;5017535;27;101098;-67
2022/06/15 00:39:53;;;;;;;1.63;0.87;;;12.20;81.90;12.10;101109.00;;;;5001366;27;83515;-68
2022/06/15 00:42:20;;;;;;;2.03;0.93;;;12.20;82.30;12.10;101107.00;;;;5011894;27;82811;-67
2022/06/15 00:44:46;;;;;;;0.70;0.70;;;12.10;82.70;12.10;101117.00;;;;5000802;27;83703;-67
2022/06/15 00:47:25;;;;;;;0.97;0.70;;;12.10;83.20;12.00;101100.00;;;;5020376;27;83599;-67
2022/06/15 00:49:56;;;;;;;0.73;0.73;;;12.00;83.60;12.00;101106.00;;;;4999083;27;82837;-67
2022/06/15 00:52:39;;;;;;;1.00;0.67;;;12.00;83.90;11.90;101095.00;;;;5012074;27;99889;-67
2022/06/15 00:55:14;;;;;;;0.63;0.63;;;12.00;85.10;11.90;101102.00;;;;5006660;27;103384;-67
2022/06/15 00:57:40;;;;;;;0.87;0.83;;;11.90;84.60;11.80;101096.00;;;;5018200;27;93494;-67
2022/06/15 01:00:07;;;;;;;0.57;0.57;;;11.90;84.90;11.80;101102.00;;;;5017672;27;110694;-67
2022/06/15 01:02:36;;;;;;;3.37;1.20;;;11.80;85.20;11.80;101094.00;;;;5007854;27;82466;-67
2022/06/15 01:05:09;;;;;;;0.80;0.70;;;11.80;86.30;11.80;101093.00;;;;5004157;27;83956;-67
2022/06/15 01:08:02;;;;;;;1.10;1.00;;;11.80;85.90;11.70;101096.00;;;;5009435;27;88783;-67
2022/06/15 01:10:57;;;;;;;1.73;1.00;;;11.80;86.10;11.70;101083.00;;;;5020560;27;84013;-67
2022/06/15 01:13:48;;;;;;;0.97;0.60;;;11.80;86.30;11.70;101091.00;;;;4999035;27;82865;-67
2022/06/15 01:16:26;;;;;;;0.60;0.60;;;11.70;86.80;11.70;101076.00;;;;5013879;27;90330;-67
2022/06/15 01:19:51;;;;;;;1.60;0.77;;;11.70;86.90;11.60;101081.00;;;;5020825;27;83552;-67
2022/06/15 01:23:28;;;;;;;1.07;0.83;;;11.70;87.20;11.50;101084.00;;;;5012816;27;82790;-66
2022/06/15 01:26:33;;;;;;;0.50;0.50;;;11.60;87.20;11.50;101084.00;;;;4985508;27;81950;-67
2022/06/15 01:29:20;;;;;;;0.50;0.50;;;11.60;87.40;11.50;101079.00;;;;5019990;27;83102;-67
2022/06/15 01:31:57;;;;;;;0.53;0.50;;;11.60;87.90;11.50;101081.00;;;;5019758;27;82925;-67
2022/06/15 01:34:29;;;;;;;0.93;0.93;;;11.50;88.60;11.40;101075.00;;;;5019402;27;83598;-67
2022/06/15 01:37:09;;;;;;;1.93;1.07;;;11.50;89.00;11.30;101069.00;;;;5014665;27;82896;-67
2022/06/15 01:39:50;;;;;;;0.80;0.60;;;11.40;89.60;11.30;101061.00;;;;5000964;27;82784;-67
2022/06/15 01:42:41;;;;;;;1.90;1.00;;;11.30;90.00;11.20;101066.00;;;;5008539;27;104542;-67
2022/06/15 01:45:12;;;;;;;1.90;0.40;;;11.30;90.30;11.20;101067.00;;;;5018023;27;83156;-68
2022/06/15 01:47:41;;;;;;;0.60;0.60;;;11.20;90.60;11.10;101059.00;;;;5017420;27;82687;-67
2022/06/15 01:50:16;;;;;;;2.97;1.13;;;11.20;90.80;11.10;101068.00;;;;5010205;27;113118;-68
2022/06/15 01:52:56;;;;;;;2.43;1.30;;;11.10;91.10;11.00;101052.00;;;;5010814;27;86308;-67
2022/06/15 01:55:39;;;;;;;1.63;1.20;;;11.10;91.40;11.00;101048.00;;;;5016210;27;82726;-67
2022/06/15 01:58:09;;;;;;;1.60;1.30;;;11.00;91.60;10.90;101046.00;;;;5016483;27;102312;-68
2022/06/15 02:00:36;;;;;;;7.90;0.77;;;11.00;91.80;10.90;101035.00;;;;5016990;27;101710;-67
2022/06/15 02:04:09;;;;;;;1.30;1.20;;;11.00;92.10;10.70;101049.00;;;;5013505;27;84299;-67
2022/06/15 02:07:18;;;;;;;0.70;0.70;;;10.90;92.30;10.70;101030.00;;;;4980277;27;82522;-68
2022/06/15 02:10:03;;;;;;;2.20;0.97;;;10.80;92.70;10.60;101026.00;;;;5010953;27;82673;-67
2022/06/15 02:12:38;;;;;;;1.83;0.90;;;10.70;92.90;10.50;101018.00;;;;5011055;27;103634;-67
2022/06/15 02:15:07;;;;;;;4.00;1.37;;;10.60;93.10;10.50;101017.00;;;;5002403;27;82754;-67
2022/06/15 02:17:39;;;;;;;0.70;0.60;;;10.50;93.40;10.50;101024.00;;;;5014448;27;82839;-67
2022/06/15 02:20:17;;;;;;;3.63;1.27;;;10.50;93.70;10.40;101026.00;;;;5018074;27;81885;-67
2022/06/15 02:22:46;;;;;;;0.97;0.90;;;10.50;94.00;10.40;101014.00;;;;5017668;27;83323;-67
2022/06/15 02:25:17;;;;;;;1.33;1.23;;;10.50;94.20;10.40;101010.00;;;;5018463;27;82963;-67
2022/06/15 02:27:44;;;;;;;2.07;0.93;;;10.50;94.40;10.40;101019.00;;;;5014536;27;99813;-67
2022/06/15 02:30:16;;;;;;;2.30;0.97;;;10.50;94.50;10.40;101022.00;;;;5018872;27;108912;-68
2022/06/15 02:32:43;;;;;;;0.37;0.37;;;10.40;94.50;10.40;101022.00;;;;5014837;27;84278;-67
2022/06/15 02:35:10;;;;;;;1.27;1.07;;;10.40;94.60;10.30;101014.00;;;;5016783;27;82949;-68
2022/06/15 02:37:35;;;;;;;1.10;0.97;;;10.40;94.80;10.30;101011.00;;;;5017762;27;100040;-67
2022/06/15 02:40:02;;;;;;;2.53;1.40;;;10.40;94.90;10.30;101016.00;;;;5018342;27;107548;-67
2022/06/15 02:42:37;;;;;;;3.90;0.93;;;10.40;95.10;10.30;101023.00;;;;5016077;27;84321;-68
2022/06/15 02:45:09;;;;;;;1.13;0.77;;;10.30;95.20;10.30;101015.00;;;;5017149;27;82229;-67
2022/06/15 02:47:40;;;;;;;1.10;0.97;;;10.30;95.30;10.30;101013.00;;;;4998587;27;82745;-67
2022/06/15 02:50:08;;;;;;;1.07;0.90;;;10.30;95.40;10.30;101012.00;;;;5010103;27;82531;-67
2022/06/15 02:52:42;;;;;;;1.13;0.83;;;10.30;95.50;10.30;101017.00;;;;5021933;27;100851;-68
2022/06/15 02:55:10;;;;;;;1.53;1.17;;;10.30;95.70;10.30;101019.00;;;;4997085;27;105790;-67
2022/06/15 02:58:15;;;;;;;7.20;1.47;;;10.30;95.90;10.10;101015.00;;;;4996641;27;82512;-67
2022/06/15 03:00:42;;;;;;;1.43;1.00;;;10.30;96.00;10.20;101018.00;;;;4984120;28;82576;-67
2022/06/15 03:03:08;;;;;;;1.23;0.80;;;10.20;96.30;10.10;101016.00;;;;5001820;27;82782;-67
2022/06/15 03:05:33;;;;;;;1.97;1.53;;;10.20;96.50;10.10;101015.00;;;;5012612;27;83516;-67
2022/06/15 03:07:59;;;;;;;1.77;0.83;;;10.20;96.70;10.10;101017.00;;;;5018976;27;110511;-67
2022/06/15 03:10:25;;;;;;;0.93;0.80;;;10.10;97.00;10.00;101010.00;;;;5008261;27;108594;-67
2022/06/15 03:12:54;;;;;;;1.57;1.07;;;10.10;97.00;10.00;101016.00;;;;5008869;27;107660;-68
2022/06/15 03:15:19;;;;;;;1.13;1.03;;;10.10;97.30;10.00;101016.00;;;;5013269;27;82904;-67
2022/06/15 03:17:45;;;;;;;1.17;1.17;;;10.10;97.50;10.00;101021.00;;;;4996606;28;110479;-67
2022/06/15 03:20:11;;;;;;;1.20;0.93;;;10.00;97.50;10.00;101025.00;;;;5003100;27;88755;-67
2022/06/15 03:22:37;;;;;;;1.17;1.07;;;10.00;97.70;10.00;101029.00;;;;5009270;27;83448;-67
2022/06/15 03:25:56;;;;;;;1.00;0.93;;;10.00;97.80;9.90;101038.00;;;;4997477;28;112327;-68
2022/06/15 03:28:23;;;;;;;1.20;1.10;;;10.00;97.90;9.90;101035.00;;;;4959954;28;82587;-67
2022/06/15 03:30:50;;;;;;;0.90;0.90;;;10.00;98.00;10.00;101023.00;;;;4968915;28;103190;-67
2022/06/15 03:33:16;;;;;;;1.43;0.90;;;10.00;98.10;10.00;101027.00;;;;4993436;28;84088;-68
2022/06/15 03:35:43;;;;;;;2.50;1.17;;;10.00;98.20;10.00;101020.00;;;;4998488;28;83045;-67
2022/06/15 03:38:09;;;;;;;1.67;0.80;;;10.10;98.30;10.10;101024.00;;;;4961026;28;82806;-67
2022/06/15 03:40:50;;;;;;;1.27;0.90;;;10.10;98.50;10.10;101028.00;;;;4977452;28;82577;-67
2022/06/15 03:43:17;;;;;;;1.43;1.03;;;10.10;98.60;10.20;101028.00;;;;4961574;28;85826;-67
2022/06/15 03:45:43;;;;;;;0.70;0.60;;;10.20;98.70;10.20;101029.00;;;;4989247;28;106635;-67
2022/06/15 03:48:11;;;;;;;1.50;0.83;;;10.20;98.80;10.30;101023.00;;;;4977650;28;95363;-67
2022/06/15 03:50:37;;;;;;;1.73;1.30;;;10.30;99.20;10.30;101021.00;;;;4977600;28;101003;-67
2022/06/15 03:53:05;;;;;;;1.80;0.80;;;10.40;99.00;10.40;101026.00;;;;4989316;28;83628;-67
2022/06/15 03:55:32;;;;;;;1.47;1.30;;;10.40;99.00;10.50;101026.00;;;;4998098;28;82666;-66
2022/06/15 03:57:59;;;;;;;1.13;1.07;;;10.50;99.20;10.60;101029.00;;;;4980689;28;82757;-66
2022/06/15 04:00:28;;;;;;;0.73;0.60;;;10.60;99.30;10.70;101023.00;;;;4979734;28;109055;-66
2022/06/15 04:02:54;;;;;;;0.83;0.53;;;10.70;99.30;10.90;101032.00;;;;4989364;28;83795;-66
2022/06/15 04:05:57;;;;;;;0.60;0.60;;;10.80;99.20;11.00;101024.00;;;;4981715;28;83644;-66
2022/06/15 04:08:35;;;;;;;3.20;1.00;;;10.90;99.20;11.10;101025.00;;;;4978384;28;86447;-67
2022/06/15 04:11:58;;;;;;;0.70;0.70;;;11.10;99.10;11.30;101014.00;;;;4964088;28;82727;-66
2022/06/15 04:14:04;;;;;;;0.93;0.93;;;11.20;99.20;11.40;101013.00;;;;4998136;28;82903;-66
2022/06/15 04:16:30;;;;;;;2.73;1.17;;;11.30;99.00;11.50;101007.00;;;;5000883;28;82528;-66
2022/06/15 04:18:57;;;;;;;0.97;0.97;;;11.40;98.80;11.70;101013.00;;;;5000219;28;82501;-66
2022/06/15 04:21:22;;;;;;;2.33;0.70;;;11.60;98.90;11.80;101011.00;;;;5001369;28;82712;-66
2022/06/15 04:23:48;;;;;;;1.27;1.07;;;11.70;98.70;12.00;101014.00;;;;4982849;28;110722;-66
2022/06/15 04:26:14;;;;;;;1.10;1.00;;;11.90;98.60;12.10;101018.00;;;;4980490;28;111351;-66
2022/06/15 04:28:43;;;;;;;1.30;1.00;;;12.00;98.40;12.20;101018.00;;;;4980116;28;109783;-66
2022/06/15 04:31:09;;;;;;;1.70;0.87;;;12.10;98.20;12.40;101013.00;;;;4964122;28;82742;-66
2022/06/15 04:33:35;;;;;;;0.60;0.60;;;12.30;97.90;12.50;101018.00;;;;4996426;28;114343;-66
2022/06/15 04:36:01;;;;;;;1.60;1.20;;;12.40;97.60;12.60;101006.00;;;;4997715;28;83014;-66
2022/06/15 04:38:27;;;;;;;2.40;0.77;;;12.50;97.40;12.80;101015.00;;;;4981200;28;82771;-66
2022/06/15 04:40:53;;;;;;;0.90;0.83;;;12.60;97.10;12.90;101018.00;;;;5000416;28;96092;-66
2022/06/15 04:43:19;;;;;;;0.97;0.97;;;12.80;96.80;13.10;101021.00;;;;4982236;28;83456;-65
2022/06/15 04:45:45;;;;;;;7.40;1.00;;;12.90;96.50;13.30;101020.00;;;;4981660;28;82808;-66
2022/06/15 04:48:11;;;;;;;1.23;0.90;;;13.10;96.10;13.40;101007.00;;;;4980514;28;82847;-67
2022/06/15 04:50:38;;;;;;;1.10;1.00;;;13.30;95.70;13.60;101023.00;;;;4979639;28;110076;-67
2022/06/15 04:53:05;;;;;;;1.83;0.83;;;13.40;95.20;13.70;101020.00;;;;4999677;28;82587;-67
2022/06/15 04:55:31;;;;;;;1.03;0.87;;;13.60;94.90;13.90;101018.00;;;;4999553;28;82687;-67
2022/06/15 04:57:59;;;;;;;1.70;1.10;;;13.70;94.60;14.10;101019.00;;;;4983300;28;99916;-67
2022/06/15 05:00:29;;;;;;;1.53;1.20;;;13.90;94.30;14.20;101011.00;;;;4973519;28;83057;-66
2022/06/15 05:02:55;;;;;;;0.90;0.90;;;14.00;93.80;14.30;101004.00;;;;4980676;28;93544;-67
2022/06/15 05:05:24;;;;;;;1.83;0.90;;;14.20;93.50;14.40;101006.00;;;;4991236;28;83644;-66
2022/06/15 05:07:52;;;;;;;0.63;0.60;;;14.30;93.00;14.50;101004.00;;;;4983815;28;100654;-66
2022/06/15 05:10:21;;;;;;;0.77;0.43;;;14.40;92.80;14.70;101013.00;;;;4978625;28;82811;-66
2022/06/15 05:12:47;;;;;;;0.83;0.70;;;14.50;92.60;14.70;101014.00;;;;4990009;28;82771;-66
2022/06/15 05:15:14;;;;;;;3.47;0.87;;;14.60;92.30;14.80;101009.00;;;;4999180;28;98295;-66
2022/06/15 05:17:41;;;;;;;0.67;0.63;;;14.70;92.10;14.90;101021.00;;;;4980564;28;82755;-66
2022/06/15 05:20:14;;;;;;;1.13;0.97;;;14.80;91.90;15.00;101009.00;;;;4979297;28;102440;-66
2022/06/15 05:22:39;;;;;;;1.80;0.80;;;14.90;91.70;15.10;101012.00;;;;4980148;28;83615;-65
2022/06/15 05:25:08;;;;;;;0.90;0.90;;;15.00;91.50;15.30;101016.00;;;;4978708;28;112051;-65
2022/06/15 05:27:36;;;;;;;1.10;0.98;;;15.10;91.30;15.50;101014.00;;;;5010655;27;82986;-66
2022/06/15 05:30:04;;;;;;;0.73;0.73;;;15.20;91.10;15.70;101021.00;;;;5020072;27;82875;-66
2022/06/15 05:32:30;;;;;;;0.60;0.60;;;15.50;90.80;16.00;101016.00;;;;5018721;27;99047;-66
2022/06/15 05:34:55;;;;;;;2.33;1.25;;;15.70;90.20;16.20;101024.00;;;;5018890;27;111788;-66
2022/06/15 05:37:22;;;;;;;0.75;0.75;;;16.00;89.50;16.50;101028.00;;;;5003395;27;110439;-66
2022/06/15 05:39:48;;;;;;;1.38;1.10;;;16.20;88.70;16.70;101018.00;;;;4999437;28;81729;-67
2022/06/15 05:42:15;;;;;;;4.65;0.98;;;16.40;87.40;16.90;101018.00;;;;5009500;27;83555;-66
2022/06/15 05:47:11;;;;;;;1.73;0.93;;;16.80;83.20;17.20;101019.00;;;;5001841;27;103842;-65
2022/06/15 05:49:37;;;;;;;2.10;1.00;;;16.90;82.70;17.30;101012.00;;;;5001380;27;83084;-66
2022/06/15 05:52:03;;;;;;;3.83;1.60;;;17.10;80.60;17.50;101018.00;;;;5018634;27;112643;-67
2022/06/15 05:54:29;;;;;;;0.40;0.40;;;17.20;80.20;17.60;101022.00;;;;5008456;27;82661;-66
2022/06/15 05:56:55;;;;;;;0.93;0.73;;;17.40;79.80;17.70;101012.00;;;;4998569;27;110528;-65
2022/06/15 05:59:21;;;;;;;3.63;1.33;;;17.50;78.50;17.90;101013.00;;;;4999043;28;82513;-65
2022/06/15 06:01:46;;;;;;;0.88;0.77;;;17.60;77.80;18.10;101014.00;;;;4998282;27;113789;-66
2022/06/15 06:04:15;;;;;;;2.95;1.08;;;17.90;77.30;18.30;101016.00;;;;4999659;28;83155;-66
2022/06/15 06:06:41;;;;;;;2.00;0.77;;;18.10;77.00;18.60;101022.00;;;;5000772;27;82564;-67
2022/06/15 06:09:07;;;;;;;0.85;0.63;;;18.30;76.10;18.80;101019.00;;;;4999286;28;82845;-66
2022/06/15 06:11:33;;;;;;;5.93;1.58;;;18.60;74.80;19.10;101021.00;;;;4998925;27;84335;-66
2022/06/15 06:13:59;;;;;;;0.95;0.77;;;18.80;74.10;19.30;101027.00;;;;5016248;27;112794;-66
2022/06/15 06:16:25;;;;;;;4.22;0.65;;;19.10;73.40;19.60;101022.00;;;;5012710;27;109045;-67
2022/06/15 06:18:51;;;;;;;0.82;0.30;;;19.30;71.30;19.80;101035.00;;;;4999023;27;82479;-66
2022/06/15 06:21:20;;;;;;;2.40;0.70;;;19.50;69.60;20.00;101035.00;;;;4999353;27;82673;-65
2022/06/15 06:23:58;;;;;;;2.20;0.47;;;19.70;69.00;20.20;101028.00;;;;4998462;27;83639;-66
2022/06/15 06:26:31;;;;;;;3.50;0.90;;;19.90;68.30;20.40;101038.00;;;;5002678;27;110007;-66
2022/06/15 06:28:58;;;;;;;0.80;0.50;;;20.10;67.60;20.70;101027.00;;;;5017064;27;82018;-66
2022/06/15 06:31:25;;;;;;;1.40;0.93;;;20.40;66.50;20.90;101024.00;;;;5019240;27;84049;-66
2022/06/15 06:33:52;;;;;;;0.88;0.70;;;20.60;65.60;21.10;101017.00;;;;5018595;27;83054;-65
2022/06/15 06:36:36;;;;;;;1.33;0.77;;;20.80;63.50;21.30;101016.00;;;;5015239;27;83678;-67
2022/06/15 06:39:05;;;;;;;1.60;0.90;;;21.00;63.50;21.50;101020.00;;;;4998056;28;100374;-65
2022/06/15 06:41:32;;;;;;;5.70;1.00;;;21.20;61.20;21.60;101026.00;;;;5003145;27;83235;-66
2022/06/15 06:43:59;;;;;;;0.77;0.75;;;21.40;59.40;21.70;101013.00;;;;5019193;27;82884;-66
2022/06/15 06:46:26;;;;;;;1.90;0.93;;;21.50;58.50;21.90;101016.00;;;;5013272;27;82777;-66
2022/06/15 06:48:52;;;;;;;8.50;0.60;;;21.60;58.40;22.10;101016.00;;;;5013997;27;94363;-66
2022/06/15 06:51:18;;;;;;;0.55;0.55;;;21.80;57.30;22.20;101016.00;;;;5018396;27;83542;-66
2022/06/15 06:53:46;;;;;;;1.70;1.00;;;21.90;57.10;22.40;101019.00;;;;5017898;27;112266;-66
2022/06/15 06:56:12;;;;;;;0.90;0.50;;;22.10;57.10;22.60;101011.00;;;;5015988;27;82675;-66
2022/06/15 06:58:38;;;;;;;0.80;0.80;;;22.30;55.90;22.70;101014.00;;;;4999476;27;83086;-66
2022/06/15 07:01:04;;;;;;;0.80;0.63;;;22.40;55.30;22.90;101025.00;;;;4998223;27;83944;-66
2022/06/15 07:03:30;;;;;;;0.82;0.68;;;22.60;55.60;23.20;101019.00;;;;5018289;27;83535;-66
2022/06/15 07:06:05;;;;;;;3.78;0.75;;;22.80;55.30;23.50;101023.00;;;;5018814;27;82645;-66
2022/06/15 07:08:31;;;;;;;2.55;0.82;;;23.10;54.80;23.80;101015.00;;;;4997586;28;82688;-66
2022/06/15 07:10:57;;;;;;;0.82;0.50;;;23.40;54.40;24.00;101014.00;;;;5000312;27;83293;-66
2022/06/15 07:13:23;;;;;;;0.45;0.45;;;23.70;54.00;24.30;101012.00;;;;4997874;27;106239;-69
2022/06/15 07:15:49;;;;;;;1.20;0.60;;;24.00;53.40;24.60;101018.00;;;;4999131;27;110905;-70
2022/06/15 07:18:15;;;;;;;0.80;0.47;;;24.30;52.50;24.90;101010.00;;;;5016552;27;82501;-71
2022/06/15 07:20:41;;;;;;;0.63;0.50;;;24.50;49.90;24.90;101013.00;;;;5016441;27;83954;-71
2022/06/15 07:23:07;;;;;;;0.40;0.40;;;24.60;49.40;25.10;101021.00;;;;5016653;27;112070;-69
2022/06/15 07:25:32;;;;;;;3.70;0.70;;;24.80;49.80;25.30;101016.00;;;;5017326;27;109529;-70
2022/06/15 07:27:58;;;;;;;0.88;0.50;;;25.00;49.30;25.50;101013.00;;;;5015993;27;99463;-70
2022/06/15 07:30:26;;;;;;;0.40;0.40;;;25.10;49.00;25.70;101010.00;;;;5016814;27;86913;-71
2022/06/15 07:32:53;;;;;;;0.40;0.40;;;25.40;49.00;26.00;101001.00;;;;5001757;27;83205;-69
2022/06/15 07:35:25;;;;;;;0.75;0.75;;;25.60;48.30;26.20;101009.00;;;;4997631;28;100584;-70
2022/06/15 07:37:52;;;;;;;2.05;1.05;;;25.90;47.60;26.40;101006.00;;;;4992975;27;82720;-71
2022/06/15 07:40:20;;;;;;;1.52;0.85;;;26.10;46.70;26.60;101011.00;;;;5000856;27;88212;-69
2022/06/15 07:42:48;;;;;;;0.57;0.50;;;26.30;46.10;26.70;101010.00;;;;4992056;27;87842;-72
2022/06/15 07:45:16;;;;;;;0.43;0.43;;;26.40;45.80;26.90;101012.00;;;;4979278;27;99556;-71
2022/06/15 07:50:27;;;;;;;0.98;0.63;;;26.80;44.50;27.20;101012.00;;;;5009245;27;88684;-71
2022/06/15 07:52:53;;;;;;;0.75;0.38;;;26.90;44.30;27.30;101015.00;;;;4987457;28;101623;-69
2022/06/15 07:55:26;;;;;;;0.57;0.35;;;27.00;43.40;27.30;101014.00;;;;4995062;27;87990;-72
2022/06/15 07:57:52;;;;;;;1.17;0.68;;;27.10;43.50;27.40;101019.00;;;;4994278;27;88556;-69
2022/06/15 08:00:21;;;;;;;0.68;0.50;;;27.20;43.40;27.50;101023.00;;;;5008158;27;95613;-71
2022/06/15 08:02:47;;;;;;;2.47;1.08;;;27.30;42.70;27.60;101011.00;;;;5014241;27;88950;-70
2022/06/15 08:05:13;;;;;;;0.60;0.57;;;27.30;42.10;27.70;101011.00;;;;5015739;27;87789;-69
2022/06/15 08:07:39;;;;;;;0.52;0.47;;;27.50;42.20;27.80;101007.00;;;;5014048;27;107890;-69
2022/06/15 08:10:07;;;;;;;0.82;0.75;;;27.50;42.60;27.90;101011.00;;;;5008463;27;118527;-73
2022/06/15 08:12:33;;;;;;;1.08;0.70;;;27.70;42.40;28.10;101010.00;;;;5000216;27;108121;-71
2022/06/15 08:15:02;;;;;;;0.70;0.70;;;27.70;41.50;28.30;100999.00;;;;4994483;28;88576;-69
2022/06/15 08:17:46;;;;;;;0.68;0.60;;;27.90;41.30;28.40;101004.00;;;;4994308;28;87564;-70
2022/06/15 08:20:22;;;;;;;0.75;0.57;;;28.10;40.30;28.50;101001.00;;;;4994880;27;104384;-71
2022/06/15 08:22:52;;;;;;;0.70;0.50;;;28.20;40.50;28.60;101013.00;;;;4993976;28;87761;-71
2022/06/15 08:25:24;;;;;;;0.88;0.70;;;28.30;40.30;28.70;101000.00;;;;4994711;28;91835;-69
2022/06/15 08:27:55;;;;;;;1.08;0.70;;;28.40;40.00;28.80;101003.00;;;;4992344;27;88487;-70
2022/06/15 08:30:21;;;;;;;0.70;0.50;;;28.50;39.20;28.90;100989.00;;;;4990700;28;118570;-70
2022/06/15 08:32:48;;;;;;;2.20;0.40;;;28.60;38.90;28.90;100994.00;;;;4990138;27;106995;-69
2022/06/15 08:35:15;;;;;;;1.75;0.35;;;28.70;38.90;29.00;100989.00;;;;5016256;27;87628;-69
2022/06/15 08:37:41;;;;;;;0.60;0.40;;;28.70;38.70;29.00;100989.00;;;;5013165;27;109421;-69
2022/06/15 08:40:09;;;;;;;1.27;0.50;;;28.70;38.50;29.00;100986.00;;;;5012211;27;91178;-70
2022/06/15 08:42:34;;;;;;;0.38;0.38;;;28.80;37.80;29.10;100989.00;;;;4965057;28;90477;-69
2022/06/15 08:45:31;;;;;;;0.32;0.32;;;28.80;37.40;29.10;100985.00;;;;4994113;27;87760;-70
2022/06/15 08:48:37;;;;;;;1.70;0.45;;;28.90;37.60;29.20;100989.00;;;;4998749;28;87615;-70
2022/06/15 08:51:15;;;;;;;0.63;0.60;;;29.00;37.70;29.40;100985.00;;;;4979359;27;107236;-69
2022/06/15 08:54:10;;;;;;;1.10;0.65;;;29.10;37.50;29.50;100981.00;;;;4994445;28;88673;-69
2022/06/15 08:56:49;;;;;;;0.60;0.50;;;29.20;37.10;29.60;100978.00;;;;4998210;28;87736;-71
2022/06/15 08:59:35;;;;;;;6.60;0.93;;;29.30;36.30;29.60;100981.00;;;;4979000;28;95131;-68
2022/06/15 09:02:16;;;;;;;0.65;0.22;;;29.30;36.20;29.60;100982.00;;;;4997574;27;88139;-71
2022/06/15 09:05:17;;;;;;;1.48;0.80;;;29.40;36.40;29.70;100984.00;;;;4960478;28;113472;-69
2022/06/15 09:08:03;;;;;;;0.85;0.63;;;29.40;36.60;29.80;100983.00;;;;4988040;28;94599;-68
2022/06/15 09:10:42;;;;;;;1.52;1.23;;;29.50;36.50;29.90;100982.00;;;;4995459;28;92062;-69
2022/06/15 09:13:32;;;;;;;0.65;0.57;;;29.60;34.50;29.60;100980.00;;;;5001629;27;109740;-70
2022/06/15 09:16:28;;;;;;;3.90;0.60;;;29.40;34.70;29.60;100985.00;;;;4991127;28;87827;-71
2022/06/15 09:19:10;;;;;;;0.65;0.63;;;29.30;35.50;29.70;100984.00;;;;4978074;28;99892;-69
2022/06/15 09:22:02;;;;;;;5.22;0.50;;;29.30;35.80;29.80;100971.00;;;;4980648;28;88122;-70
2022/06/15 09:24:46;;;;;;;0.40;0.40;;;29.40;35.80;30.00;100976.00;;;;4994166;27;111206;-70
2022/06/15 09:27:44;;;;;;;0.70;0.55;;;29.50;35.70;30.20;100975.00;;;;4989958;28;87149;-69
2022/06/15 09:30:27;;;;;;;1.02;0.52;;;29.70;36.00;30.40;100977.00;;;;4988471;27;102206;-69
2022/06/15 09:33:19;;;;;;;1.85;0.60;;;29.90;35.40;30.60;100969.00;;;;4994197;27;87868;-69
2022/06/15 09:36:01;;;;;;;0.60;0.52;;;30.10;35.30;30.90;100962.00;;;;4997909;27;97094;-70
2022/06/15 09:38:45;;;;;;;0.35;0.35;;;30.40;35.00;31.00;100967.00;;;;4998264;27;87791;-69
2022/06/15 09:42:01;;;;;;;0.50;0.22;;;30.50;34.90;31.10;100964.00;;;;4998010;27;110111;-70
2022/06/15 09:44:26;;;;;;;0.55;0.55;;;30.70;34.50;31.30;100966.00;;;;5012291;27;87882;-70
2022/06/15 09:47:41;;;;;;;0.88;0.82;;;30.80;34.40;31.50;100964.00;;;;5016166;27;88234;-70
2022/06/15 09:50:40;;;;;;;0.63;0.50;;;31.00;34.10;31.50;100968.00;;;;5016862;27;87966;-70
2022/06/15 09:53:25;;;;;;;2.22;0.68;;;31.10;33.00;31.60;100969.00;;;;4982615;27;87714;-71
2022/06/15 09:55:58;;;;;;;0.40;0.28;;;31.20;33.00;31.70;100976.00;;;;4997682;27;86742;-70
2022/06/15 09:58:30;;;;;;;0.80;0.40;;;31.20;33.00;31.70;100965.00;;;;4977419;28;88101;-71
2022/06/15 10:00:56;;;;;;;0.93;0.43;;;31.30;31.30;31.50;100961.00;;;;4995958;28;108611;-70
2022/06/15 10:03:43;;;;;;;0.50;0.50;;;31.10;32.20;31.60;100959.00;;;;4987432;27;111274;-69
2022/06/15 10:06:25;;;;;;;0.70;0.70;;;31.10;32.00;31.60;100954.00;;;;5004384;27;87645;-70
2022/06/15 10:08:51;;;;;;;0.47;0.47;;;31.10;32.00;31.70;100954.00;;;;4998687;27;87917;-69
2022/06/15 10:11:44;;;;;;;0.77;0.60;;;31.10;32.40;31.90;100950.00;;;;5016141;27;88309;-71
2022/06/15 10:14:21;;;;;;;1.63;0.40;;;31.30;32.50;32.10;100949.00;;;;4993903;28;89017;-70
2022/06/15 10:17:04;;;;;;;0.55;0.45;;;31.50;32.40;32.40;100949.00;;;;4978379;28;87763;-70
2022/06/15 10:19:33;;;;;;;0.75;0.57;;;31.70;32.20;32.60;100945.00;;;;4993449;28;111266;-70
2022/06/15 10:22:04;;;;;;;0.47;0.45;;;31.90;31.20;32.60;100956.00;;;;4977579;28;111026;-70
2022/06/15 10:24:35;;;;;;;0.70;0.40;;;32.00;30.30;32.30;100946.00;;;;4989015;28;87707;-71
2022/06/15 10:27:16;;;;;;;1.85;1.08;;;31.80;30.30;32.30;100943.00;;;;4978115;28;87868;-71
2022/06/15 10:29:44;;;;;;;0.25;0.25;;;31.70;31.00;32.50;100942.00;;;;4975887;28;90449;-71
2022/06/15 10:32:09;;;;;;;5.70;0.68;;;31.80;30.90;32.50;100952.00;;;;5012854;27;90059;-71
2022/06/15 10:34:56;;;;;;;0.40;0.38;;;31.80;30.50;32.40;100946.00;;;;5000089;27;90285;-72
2022/06/15 10:37:47;;;;;;;2.13;1.10;;;31.80;30.40;32.60;100947.00;;;;4989939;27;87806;-72
2022/06/15 10:40:33;;;;;;;1.00;0.60;;;31.80;30.80;32.90;100946.00;;;;4990127;28;88018;-70
2022/06/15 10:43:15;;;;;;;1.02;0.43;;;32.10;31.20;33.30;100942.00;;;;4977966;27;87866;-70
2022/06/15 10:45:52;;;;;;;1.20;0.82;;;32.40;31.10;33.50;100938.00;;;;4996230;27;88202;-70
2022/06/15 10:48:44;;;;;;;0.50;0.50;;;32.70;30.00;33.60;100939.00;;;;5002797;27;91766;-70
2022/06/15 10:51:18;;;;;;;1.90;0.50;;;32.70;30.00;33.80;100927.00;;;;4976943;28;87834;-70
2022/06/15 10:54:16;;;;;;;0.55;0.55;;;32.90;30.20;34.10;100940.00;;;;4989900;27;110501;-70
2022/06/15 11:02:41;;;;;;;0.52;0.30;;;33.20;28.80;33.60;100937.00;;;;5009583;27;87809;-71
2022/06/15 11:05:23;;;;;;;0.20;0.20;;;33.00;28.90;33.60;100934.00;;;;4996701;27;94186;-71
2022/06/15 11:08:14;;;;;;;3.35;0.93;;;32.90;29.60;33.90;100929.00;;;;5000842;27;94383;-70
2022/06/15 11:10:47;;;;;;;3.05;1.17;;;33.10;29.70;34.10;100926.00;;;;4994934;28;87683;-72
2022/06/15 11:13:37;;;;;;;0.70;0.30;;;33.30;29.70;34.40;100921.00;;;;5010668;27;98161;-72
2022/06/15 11:19:08;;;;;;;1.80;0.65;;;33.60;28.70;34.60;100930.00;;;;4989740;28;87928;-70
2022/06/15 11:21:43;;;;;;;2.08;0.38;;;33.70;29.10;34.80;100928.00;;;;4976742;27;87937;-70
2022/06/15 11:24:56;;;;;;;0.50;0.38;;;34.00;28.50;34.50;100922.00;;;;4986362;27;88925;-70
2022/06/15 11:27:29;;;;;;;0.30;0.30;;;33.90;27.70;34.40;100921.00;;;;4949309;28;88663;-70